Estación Meteorológica Peña el Pijo (Robertgarden) [ 11/19/19 10:37:04 CET ]

Fecha Hora Presion(HPa) Temp (°C) Humedad % Rocio (°C) Viento ( m/s) Direccion Lluvia 1Hora(mm) Lluvia 24H(mm) LLuvia Total(mm)
2019-May-29 01:01:33 1009.800 13.9 63 7.0         318.05
2019-May-29 02:01:42 1009.900 13.9 65 7.4         318.05
2019-May-29 03:01:40 1009.900 13.6 68 7.8         318.05
2019-May-29 04:08:07 1010.400 14.7 71 9.5         318.05
2019-May-29 05:01:42 1010.600 13.9 73 9.1         318.05
2019-May-29 06:01:44 1010.700 13.8 76 9.6         318.05
2019-May-29 07:01:49 1010.900 12.6 78 8.8         318.05
2019-May-29 08:01:44 1011.100 12.5 77 8.6         318.05
2019-May-29 09:01:50 1011.200 17.1 60 9.3         318.05
2019-May-29 10:01:34 1011.600 19.8 51 9.4         318.05
2019-May-29 11:01:59 1011.400 22.3 43 9.1 0.8 N     318.05
2019-May-29 12:01:47 1011.500 23.9 36 7.8         318.05
2019-May-29 13:01:46 1011.700 25.1 30 6.4         318.05
2019-May-29 14:01:47 1011.300 25.3 32 7.4         318.05
2019-May-29 15:01:51 1011.200 27.5 30 8.4 0.5 NNE     318.05
2019-May-29 16:01:59 1011.000 27.8 28 7.5         318.05
2019-May-29 17:01:49 1010.800 28.3 27 7.3         318.05
2019-May-29 18:01:53 1011.000 26.7 26 5.4 1.7 E     318.05
2019-May-29 19:01:41 1011.300 25.0 24 2.8         318.05
2019-May-29 20:01:38 1011.900 22.4 27 2.3         318.05
2019-May-29 21:01:52 1012.400 18.4 33 1.8         318.05
2019-May-29 22:01:40 1012.800 15.7 45 3.7         318.05
2019-May-29 23:01:38 1013.800 13.9 55 5.0         318.05

Temperatura Máxima:28°    Temperatura Mínima:12°
Presión Máxima:1013.800 Hpa    Presión Mínima:1009.800 Hpa


Volver